CYYJ/YYJ METAR and TAF weather

Enter ICAO airport designator
Station Type Date Time Source
CYYJ METAR 2018/07/21 04:00 UTC NOAA

CYYJ 210400Z 14003KT 100V170 30SM BKN093 BKN250 18/10 A3012 RMK AC5CI1 CI TR SLP201 DENSITY ALT 300FT


Station Type Date Time Source
CYYJ Decoded METAR 2018/07/21 04:00 UTC NOAA

Victoria Int. Airport, B. C., Canada (CYYJ) 48-39N 123-26W 19M
Jul 21, 2018 - 12:00 AM EDT / 2018.07.21 0400 UTC
Wind: from the SE (140 degrees) at 3 MPH (3 KT) (direction variable):0
Visibility: 30 mile(s):0
Sky conditions: mostly cloudy
Temperature: 64 F (18 C)
Dew Point: 50 F (10 C)
Relative Humidity: 59%
Pressure (altimeter): 30.12 in. Hg (1019 hPa)
ob: CYYJ 210400Z 14003KT 100V170 30SM BKN093 BKN250 18/10 A3012 RMK AC5CI1 CI TR SLP201 DENSITY ALT 300FT
cycle: 4

Station Type Date Time Source
CYYJ TAF 2018/07/20 18:42 UTC NOAA

TAF CYYJ 201738Z 2018/2118 13009KT P6SM FEW030 SCT070
BECMG 2103/2105 VRB03KT
FM210900 27006KT P6SM FEW070
BECMG 2116/2118 08006KT
RMK NXT FCST BY 210000Z


Example: see airport list